Time;durP1;ratioP1;P1;durP2;ratioP2;P2;SDS_P1;SDS_P2;PMS_P1;PMS_P2;Temp;Humidity;BMP_temperature;BMP_pressure;BME280_temperature;BME280_humidity;BME280_pressure;Samples;Min_cycle;Max_cycle;Signal;HPM_P1;HPM_P2
2023/06/28 00:03:00;;;;;;;4.60;3.20;;;;;;;13.00;68.83;99418.08;218391;1254;139721;-68
2023/06/28 00:08:06;;;;;;;7.20;2.60;;;;;;;12.93;69.03;99417.55;218565;1254;231919;-65
2023/06/28 00:13:11;;;;;;;4.80;2.70;;;;;;;12.86;69.23;99415.99;218432;1254;139902;-67
2023/06/28 00:18:16;;;;;;;2.80;2.40;;;;;;;12.80;69.50;99420.67;218812;1254;139682;-65
2023/06/28 00:23:19;;;;;;;2.30;2.10;;;;;;;12.77;69.78;99420.34;218164;1254;139597;-66
2023/06/28 00:28:23;;;;;;;6.30;2.80;;;;;;;12.75;69.95;99415.77;218739;1254;141006;-65
2023/06/28 00:33:27;;;;;;;3.60;2.40;;;;;;;12.72;70.27;99412.05;219061;1257;139734;-66
2023/06/28 00:38:34;;;;;;;2.10;1.90;;;;;;;12.70;70.32;99415.52;217970;1254;140469;-66
2023/06/28 00:43:38;;;;;;;3.40;2.30;;;;;;;12.65;70.30;99414.50;218863;1256;141265;-66
2023/06/28 00:48:43;;;;;;;3.40;1.80;;;;;;;12.64;70.33;99419.14;217865;1259;139839;-65
2023/06/28 00:53:47;;;;;;;1.30;1.30;;;;;;;12.62;70.53;99418.06;220492;1254;140294;-67
2023/06/28 00:58:53;;;;;;;1.50;1.40;;;;;;;12.56;70.59;99414.70;218372;1254;139893;-64
2023/06/28 01:04:05;;;;;;;2.90;2.00;;;;;;;12.49;70.71;99418.67;220218;1254;139512;-66
2023/06/28 01:09:11;;;;;;;1.80;1.70;;;;;;;12.44;70.91;99419.05;220779;1254;140054;-65
2023/06/28 01:14:17;;;;;;;4.60;2.60;;;;;;;12.38;71.15;99419.91;220834;1254;139938;-65
2023/06/28 01:19:23;;;;;;;4.20;3.90;;;;;;;12.34;71.08;99417.03;218804;1254;140887;-67
2023/06/28 01:24:29;;;;;;;3.60;2.30;;;;;;;12.34;71.41;99407.84;220411;1254;140617;-67
2023/06/28 01:29:36;;;;;;;2.20;2.00;;;;;;;12.33;71.40;99408.57;220587;1254;139937;-69
2023/06/28 01:34:42;;;;;;;2.90;2.70;;;;;;;12.27;71.39;99409.05;217984;1254;140708;-67
2023/06/28 01:39:48;;;;;;;3.50;2.90;;;;;;;12.16;71.79;99414.04;218236;1254;139725;-67
2023/06/28 01:44:53;;;;;;;4.80;4.10;;;;;;;12.07;71.86;99411.42;218433;1258;140043;-68
2023/06/28 01:49:58;;;;;;;4.40;3.00;;;;;;;12.00;71.99;99411.40;218777;1254;140963;-68
2023/06/28 01:55:04;;;;;;;2.80;2.60;;;;;;;11.92;72.09;99410.38;218529;1254;140543;-68
2023/06/28 02:00:10;;;;;;;3.40;3.10;;;;;;;11.88;72.68;99414.66;218479;1254;139825;-67
2023/06/28 02:05:16;;;;;;;2.50;2.20;;;;;;;11.89;72.92;99417.08;219166;1257;140444;-68
2023/06/28 02:10:26;;;;;;;7.90;3.30;;;;;;;11.87;73.12;99426.40;218129;1254;139569;-66
2023/06/28 02:15:31;;;;;;;5.20;2.80;;;;;;;11.82;73.15;99429.92;218419;1254;140699;-66
2023/06/28 02:20:35;;;;;;;2.30;2.10;;;;;;;11.77;73.08;99425.79;218456;1254;140907;-66
2023/06/28 02:25:40;;;;;;;3.00;2.80;;;;;;;11.67;73.34;99422.65;217974;1259;140511;-67
2023/06/28 02:30:45;;;;;;;2.20;2.10;;;;;;;11.61;73.75;99420.73;218500;1254;140423;-67
2023/06/28 02:35:51;;;;;;;4.20;3.80;;;;;;;11.60;74.23;99422.81;218439;1259;139829;-67
2023/06/28 02:40:55;;;;;;;6.10;2.80;;;;;;;11.58;74.24;99428.98;218934;1256;140247;-66
2023/06/28 02:45:58;;;;;;;4.00;2.70;;;;;;;11.53;74.60;99430.94;219029;1254;140047;-66
2023/06/28 02:51:03;;;;;;;2.10;2.00;;;;;;;11.55;74.88;99431.60;218074;1254;140449;-69
2023/06/28 02:56:12;;;;;;;6.90;3.50;;;;;;;11.59;74.81;99424.17;218507;1256;140175;-68
2023/06/28 03:01:17;;;;;;;2.30;2.20;;;;;;;11.61;75.05;99421.74;218163;1254;140731;-67
2023/06/28 03:06:22;;;;;;;2.70;2.50;;;;;;;11.63;75.42;99420.25;220151;1254;142209;-67
2023/06/28 03:11:27;;;;;;;6.90;3.00;;;;;;;11.69;75.53;99418.95;220400;1254;139875;-66
2023/06/28 03:16:31;;;;;;;3.80;3.00;;;;;;;11.82;75.55;99413.67;220707;1258;140542;-68
2023/06/28 03:21:38;;;;;;;4.20;2.70;;;;;;;11.98;75.59;99413.48;220899;1254;140400;-66
2023/06/28 03:26:42;;;;;;;7.70;2.80;;;;;;;12.13;75.48;99412.13;220000;1254;140380;-67
2023/06/28 03:31:47;;;;;;;5.50;3.20;;;;;;;12.30;75.21;99413.46;219111;1254;140319;-67
2023/06/28 03:36:52;;;;;;;3.10;2.40;;;;;;;12.47;75.39;99414.00;218128;1254;139885;-67
2023/06/28 03:42:07;;;;;;;2.90;2.70;;;;;;;12.63;75.08;99409.79;219010;1257;140746;-68
2023/06/28 03:47:13;;;;;;;2.70;2.40;;;;;;;12.78;75.37;99407.23;218355;1254;139709;-68
2023/06/28 03:52:18;;;;;;;2.50;2.30;;;;;;;12.85;75.30;99404.44;217959;1257;139688;-68
2023/06/28 03:57:23;;;;;;;4.10;2.90;;;;;;;12.89;75.37;99410.81;219221;1254;140813;-66
2023/06/28 04:08:50;;;;;;;4.10;3.80;;;;;;;13.07;75.05;99410.52;218040;1259;139484;-66
2023/06/28 04:13:54;;;;;;;3.90;3.50;;;;;;;13.18;75.08;99413.65;218604;1254;139963;-66
2023/06/28 04:19:00;;;;;;;4.70;4.20;;;;;;;13.29;74.87;99424.70;218935;1257;141520;-66
2023/06/28 04:24:05;;;;;;;2.50;2.30;;;;;;;13.52;75.02;99418.75;218889;1257;139772;-66
2023/06/28 04:29:10;;;;;;;4.10;2.70;;;;;;;13.82;74.62;99411.02;218140;1257;140103;-66
2023/06/28 04:34:17;;;;;;;4.60;2.80;;;;;;;14.07;74.37;99409.42;218966;1254;139847;-66
2023/06/28 04:39:21;;;;;;;;;;;;;;;15.08;73.46;99410.46;219273;1258;140652;-65
2023/06/28 04:44:34;;;;;;;2.60;2.40;;;;;;;16.84;70.99;99406.83;218543;1254;126412;-69
2023/06/28 04:49:39;;;;;;;3.00;2.00;;;;;;;17.94;68.89;99406.34;218212;1256;139729;-66
2023/06/28 04:54:43;;;;;;;5.80;2.20;;;;;;;18.62;67.07;99404.66;219826;1254;140302;-67
2023/06/28 04:59:48;;;;;;;2.70;2.50;;;;;;;18.52;66.38;99405.17;218643;1254;141595;-67
2023/06/28 05:04:53;;;;;;;2.60;1.90;;;;;;;18.66;65.39;99401.67;219299;1257;139937;-65
2023/06/28 05:09:58;;;;;;;4.20;2.50;;;;;;;19.24;64.15;99401.80;220866;1256;140175;-65
2023/06/28 05:15:02;;;;;;;5.30;2.40;;;;;;;21.36;61.57;99399.22;219100;1258;139727;-65
2023/06/28 05:20:07;;;;;;;2.00;1.90;;;;;;;25.16;56.86;99398.73;220560;1257;141503;-66
2023/06/28 05:25:12;;;;;;;2.20;1.30;;;;;;;28.15;52.70;99404.18;219817;1254;139109;-66
2023/06/28 05:30:17;;;;;;;1.40;1.30;;;;;;;30.53;48.95;99400.36;218808;1258;138523;-65
2023/06/28 05:35:23;;;;;;;0.80;0.80;;;;;;;32.03;44.88;99400.78;218917;1260;140086;-66
2023/06/28 05:40:30;;;;;;;3.90;1.70;;;;;;;33.95;42.38;99401.73;219224;1258;139236;-66
2023/06/28 05:45:35;;;;;;;2.00;1.50;;;;;;;35.01;39.13;99399.67;219140;1254;139972;-67
2023/06/28 05:50:42;;;;;;;1.60;1.50;;;;;;;35.80;36.98;99394.88;219056;1258;138771;-67
2023/06/28 05:55:49;;;;;;;1.60;0.90;;;;;;;36.65;34.68;99391.23;218939;1256;138726;-67
2023/06/28 06:00:53;;;;;;;0.70;0.70;;;;;;;37.00;33.13;99395.77;219199;1254;139666;-67
2023/06/28 06:05:58;;;;;;;0.70;0.70;;;;;;;37.54;32.05;99399.49;218771;1260;140803;-67
2023/06/28 06:11:03;;;;;;;5.30;1.20;;;;;;;38.12;31.05;99401.20;218058;1259;138666;-67
2023/06/28 06:16:08;;;;;;;4.90;1.40;;;;;;;38.49;30.21;99403.35;218551;1254;138915;-66
2023/06/28 06:21:13;;;;;;;0.60;0.60;;;;;;;38.59;29.13;99406.48;218361;1259;138653;-68
2023/06/28 06:26:18;;;;;;;14.50;1.40;;;;;;;38.37;28.54;99404.10;217823;1256;139193;-68
2023/06/28 06:31:22;;;;;;;2.00;0.90;;;;;;;38.02;28.24;99403.52;218020;1258;139035;-68
2023/06/28 06:36:28;;;;;;;3.70;1.00;;;;;;;38.20;28.32;99394.42;217900;1260;139621;-69
2023/06/28 06:41:33;;;;;;;1.10;0.60;;;;;;;38.48;27.82;99387.22;217892;1260;139197;-67
2023/06/28 06:46:38;;;;;;;2.50;1.30;;;;;;;38.41;27.18;99382.38;218480;1254;139530;-68
2023/06/28 06:51:43;;;;;;;7.60;1.00;;;;;;;38.16;27.16;99383.63;218370;1260;139388;-68
2023/06/28 06:56:48;;;;;;;2.50;0.80;;;;;;;37.42;26.46;99380.86;220663;1254;139561;-66
2023/06/28 07:01:53;;;;;;;1.90;1.20;;;;;;;36.17;26.95;99377.95;220780;1254;139566;-67
2023/06/28 07:07:00;;;;;;;1.50;0.60;;;;;;;35.77;27.38;99376.23;218615;1255;140138;-67
2023/06/28 07:12:05;;;;;;;5.10;1.00;;;;;;;35.65;27.59;99375.23;218963;1255;138478;-68
2023/06/28 07:17:10;;;;;;;2.90;1.30;;;;;;;34.83;28.15;99373.38;220679;1254;139310;-67
2023/06/28 07:22:15;;;;;;;12.60;1.70;;;;;;;34.09;28.46;99368.45;219067;1254;139405;-68
2023/06/28 07:27:21;;;;;;;5.90;1.40;;;;;;;32.61;29.20;99369.67;218096;1254;140486;-67
2023/06/28 07:32:26;;;;;;;3.20;1.10;;;;;;;32.05;30.64;99365.54;220773;1254;139697;-67
2023/06/28 07:37:32;;;;;;;3.10;1.20;;;;;;;31.70;31.51;99366.30;220460;1254;139819;-65
2023/06/28 07:42:40;;;;;;;4.60;1.10;;;;;;;30.65;31.47;99368.16;218361;1255;140584;-65
2023/06/28 07:47:48;;;;;;;2.30;1.20;;;;;;;29.80;32.24;99363.43;218534;1254;139579;-64
2023/06/28 07:52:55;;;;;;;3.00;1.70;;;;;;;29.36;33.16;99354.55;218229;1260;139056;-65
2023/06/28 07:57:59;;;;;;;;;;;;;;;28.45;33.62;99362.41;219040;1254;138997;-69
2023/06/28 08:03:06;;;;;;;3.80;1.70;;;;;;;27.38;34.93;99367.88;218438;1255;126176;-68
2023/06/28 08:08:13;;;;;;;9.20;1.60;;;;;;;26.64;35.58;99366.55;218832;1254;139696;-66
2023/06/28 08:13:22;;;;;;;24.60;3.40;;;;;;;26.40;36.39;99368.70;218107;1255;139980;-66
2023/06/28 08:18:28;;;;;;;3.60;1.50;;;;;;;26.07;36.95;99368.46;218042;1254;139324;-67
2023/06/28 08:23:36;;;;;;;2.80;1.30;;;;;;;25.89;37.81;99366.54;219107;1259;223236;-68
2023/06/28 08:28:42;;;;;;;3.30;1.60;;;;;;;25.74;37.88;99366.13;218067;1260;138867;-68
2023/06/28 08:34:05;;;;;;;7.20;1.50;;;;;;;25.50;38.69;99363.30;218648;1254;139572;-68
2023/06/28 08:39:09;;;;;;;3.30;1.60;;;;;;;25.59;38.87;99361.96;217968;1254;139356;-67
2023/06/28 08:44:18;;;;;;;1.60;1.40;;;;;;;25.45;38.54;99358.91;219484;1254;140312;-68
2023/06/28 08:49:25;;;;;;;3.60;1.50;;;;;;;24.99;38.69;99352.15;219567;1254;139392;-65
2023/06/28 08:54:31;;;;;;;3.20;1.80;;;;;;;24.61;39.56;99345.78;219132;1254;139692;-65
2023/06/28 08:59:39;;;;;;;2.20;1.30;;;;;;;24.24;39.66;99347.73;220776;1254;139193;-65
2023/06/28 09:04:48;;;;;;;2.40;1.30;;;;;;;24.01;39.73;99345.17;220617;1254;139035;-68
2023/06/28 09:09:55;;;;;;;2.20;1.40;;;;;;;23.34;40.20;99344.45;219165;1256;139211;-67
2023/06/28 09:15:05;;;;;;;3.00;1.60;;;;;;;22.90;40.99;99345.48;217994;1257;140400;-66
2023/06/28 09:20:21;;;;;;;1.40;1.10;;;;;;;23.24;41.68;99346.46;218923;1257;139502;-65
2023/06/28 09:25:30;;;;;;;4.00;1.40;;;;;;;23.30;41.27;99342.84;218166;1257;141256;-65
2023/06/28 09:30:38;;;;;;;7.10;3.60;;;;;;;23.04;40.99;99343.58;218926;1254;139861;-66
2023/06/28 09:35:43;;;;;;;7.40;1.80;;;;;;;23.03;41.78;99334.69;218253;1254;140311;-66
2023/06/28 09:41:00;;;;;;;10.70;6.40;;;;;;;23.30;42.23;99339.20;219201;1254;139243;-66
2023/06/28 09:46:22;;;;;;;6.30;1.60;;;;;;;23.42;42.03;99340.29;218885;1256;140307;-66
2023/06/28 09:51:28;;;;;;;2.20;1.80;;;;;;;23.48;42.26;99337.79;218100;1255;139966;-68
2023/06/28 09:56:40;;;;;;;2.40;1.80;;;;;;;23.23;42.05;99337.02;218376;1256;138643;-68
2023/06/28 10:01:51;;;;;;;2.00;1.70;;;;;;;22.61;41.97;99337.34;218362;1256;246479;-68
2023/06/28 10:07:03;;;;;;;3.50;1.70;;;;;;;22.28;42.45;99335.29;218440;1254;139001;-69
2023/06/28 10:12:18;;;;;;;2.50;1.70;;;;;;;21.93;42.62;99356.85;218414;1254;139639;-67
2023/06/28 10:17:24;;;;;;;8.10;2.60;;;;;;;21.43;42.91;99356.23;219549;1254;140616;-67
2023/06/28 10:22:30;;;;;;;1.80;1.70;;;;;;;21.22;43.62;99356.83;218438;1254;138981;-67
2023/06/28 10:27:35;;;;;;;4.10;1.90;;;;;;;21.02;44.17;99360.89;219175;1254;139056;-68
2023/06/28 10:32:43;;;;;;;5.30;2.20;;;;;;;20.84;44.66;99362.00;218924;1254;139729;-68
2023/06/28 10:37:51;;;;;;;7.20;2.50;;;;;;;20.74;45.22;99362.98;219274;1255;139168;-68
2023/06/28 10:42:57;;;;;;;4.40;1.80;;;;;;;20.69;45.72;99361.05;219327;1254;140329;-67
2023/06/28 10:48:02;;;;;;;3.50;2.70;;;;;;;20.62;46.24;99361.64;219198;1254;139908;-68
2023/06/28 10:53:22;;;;;;;5.00;1.70;;;;;;;20.50;46.68;99359.98;220771;1254;141133;-68
2023/06/28 10:58:35;;;;;;;12.30;4.50;;;;;;;20.29;47.34;99361.36;220755;1254;139780;-68
2023/06/28 11:03:44;;;;;;;4.60;2.20;;;;;;;20.04;47.37;99375.88;220573;1254;140156;-68
2023/06/28 11:08:52;;;;;;;3.70;1.80;;;;;;;20.08;48.21;99379.04;218555;1254;139026;-67
2023/06/28 11:13:58;;;;;;;4.30;1.70;;;;;;;20.45;48.46;99383.60;219370;1254;139254;-67
2023/06/28 11:19:14;;;;;;;2.00;1.40;;;;;;;20.57;48.68;99387.02;219292;1254;139544;-67
2023/06/28 11:24:45;;;;;;;7.80;2.20;;;;;;;20.32;48.77;99395.69;217792;1254;139083;-67
2023/06/28 11:29:58;;;;;;;5.30;1.60;;;;;;;20.11;49.33;99407.38;218429;1254;248231;-68
2023/06/28 11:35:05;;;;;;;2.20;1.30;;;;;;;19.98;49.67;99407.65;218179;1254;139581;-70
2023/06/28 11:40:10;;;;;;;1.80;1.10;;;;;;;19.92;50.11;99419.14;219139;1254;139701;-69
2023/06/28 11:45:19;;;;;;;2.90;1.50;;;;;;;19.75;50.20;99419.97;217670;1254;579627;-67
2023/06/28 11:50:23;;;;;;;1.60;1.20;;;;;;;19.59;51.04;99412.17;218324;1254;140560;-67
2023/06/28 11:55:28;;;;;;;2.60;0.90;;;;;;;19.30;51.47;99414.29;218493;1258;139053;-67
2023/06/28 12:00:38;;;;;;;2.20;1.30;;;;;;;18.95;52.23;99421.81;217860;1254;140339;-67
2023/06/28 12:05:54;;;;;;;1.90;1.80;;;;;;;18.40;53.66;99429.66;218854;1254;139464;-69
2023/06/28 12:11:12;;;;;;;2.00;1.70;;;;;;;17.92;55.30;99423.45;218194;1254;139580;-69
2023/06/28 12:16:18;;;;;;;2.40;2.10;;;;;;;17.70;56.72;99423.99;218162;1258;138861;-66
2023/06/28 12:21:24;;;;;;;2.30;1.90;;;;;;;17.37;57.96;99421.63;219323;1256;139878;-65
2023/06/28 12:26:28;;;;;;;;;;;;;;;17.24;59.22;99417.02;218430;1254;140996;-65
2023/06/28 12:31:46;;;;;;;3.20;1.30;;;;;;;17.01;59.92;99418.56;219247;1254;126314;-65
2023/06/28 12:36:58;;;;;;;1.70;1.60;;;;;;;16.85;60.91;99417.68;219638;1254;140484;-65
2023/06/28 12:42:03;;;;;;;2.50;1.30;;;;;;;16.68;61.51;99420.25;218726;1254;140521;-68
2023/06/28 12:47:07;;;;;;;0.90;0.80;;;;;;;16.45;62.09;99421.11;219424;1256;144078;-67
2023/06/28 12:52:13;;;;;;;4.00;1.70;;;;;;;16.29;62.79;99419.88;219971;1254;140921;-66
2023/06/28 12:57:27;;;;;;;1.00;1.00;;;;;;;16.25;63.52;99419.04;220730;1254;139939;-67
2023/06/28 13:02:33;;;;;;;1.30;1.20;;;;;;;16.25;64.26;99418.29;220863;1254;140480;-68
2023/06/28 13:07:41;;;;;;;1.40;1.30;;;;;;;16.12;64.72;99419.68;219809;1254;140956;-65
2023/06/28 13:12:46;;;;;;;1.40;0.90;;;;;;;16.01;65.43;99421.19;218126;1254;139634;-66
2023/06/28 13:17:53;;;;;;;1.00;1.00;;;;;;;16.01;66.20;99418.77;217951;1256;140491;-68
2023/06/28 13:22:56;;;;;;;1.00;1.00;;;;;;;16.03;66.72;99413.92;218581;1253;139959;-66
2023/06/28 13:28:00;;;;;;;3.40;1.00;;;;;;;16.03;67.01;99413.86;218106;1254;141495;-68
2023/06/28 13:33:04;;;;;;;1.00;1.00;;;;;;;16.00;67.56;99412.00;218916;1254;140050;-73
2023/06/28 13:38:09;;;;;;;1.10;1.10;;;;;;;15.97;68.05;99405.83;218120;1256;140903;-74
2023/06/28 13:43:14;;;;;;;1.00;1.00;;;;;;;15.86;68.39;99406.16;218064;1254;140221;-69
2023/06/28 13:48:18;;;;;;;0.70;0.70;;;;;;;15.77;69.12;99411.75;218833;1254;140335;-70
2023/06/28 13:53:23;;;;;;;1.60;1.50;;;;;;;15.71;69.56;99411.35;218468;1254;139538;-68
2023/06/28 13:58:28;;;;;;;1.30;1.30;;;;;;;15.68;69.98;99409.86;218743;1254;139414;-68
2023/06/28 14:03:33;;;;;;;2.90;1.90;;;;;;;15.70;70.49;99406.14;219222;1254;139832;-66
2023/06/28 14:08:37;;;;;;;1.20;1.10;;;;;;;15.73;70.72;99404.20;219352;1254;139742;-67
2023/06/28 14:13:41;;;;;;;2.00;1.70;;;;;;;15.63;70.90;99402.19;218562;1254;139791;-65
2023/06/28 14:18:45;;;;;;;2.50;2.30;;;;;;;15.57;71.37;99400.41;219747;1254;140940;-68
2023/06/28 14:23:51;;;;;;;3.00;2.60;;;;;;;15.61;71.88;99401.50;219351;1254;140511;-66
2023/06/28 14:28:56;;;;;;;3.50;3.20;;;;;;;15.62;72.01;99394.73;219659;1254;139642;-69
2023/06/28 14:34:01;;;;;;;3.50;3.10;;;;;;;15.65;72.45;99393.20;220719;1254;139866;-66
2023/06/28 14:39:10;;;;;;;7.60;4.10;;;;;;;15.65;72.49;99395.58;220656;1254;140991;-70
2023/06/28 14:44:16;;;;;;;5.70;5.10;;;;;;;15.67;72.84;99391.36;220669;1254;139655;-70
2023/06/28 14:49:23;;;;;;;5.60;5.10;;;;;;;15.71;73.32;99395.50;220193;1254;139972;-70
2023/06/28 14:54:31;;;;;;;5.40;4.50;;;;;;;15.78;73.50;99392.98;219536;1254;140936;-68
2023/06/28 14:59:42;;;;;;;4.20;3.90;;;;;;;15.80;73.80;99395.62;220850;1254;139827;-66
2023/06/28 15:04:53;;;;;;;6.00;5.30;;;;;;;15.86;74.07;99393.98;218998;1254;140159;-66
2023/06/28 15:09:58;;;;;;;7.60;5.10;;;;;;;15.99;74.35;99395.23;219423;1254;142221;-66
2023/06/28 15:15:04;;;;;;;5.80;5.20;;;;;;;16.18;74.74;99401.36;218216;1254;139897;-65
2023/06/28 15:20:10;;;;;;;5.00;4.50;;;;;;;16.28;74.76;99404.02;218000;1254;139438;-68
2023/06/28 15:25:24;;;;;;;4.60;4.20;;;;;;;16.35;74.84;99404.52;218919;1255;141918;-67
2023/06/28 15:30:30;;;;;;;5.00;4.00;;;;;;;16.37;74.87;99402.77;218991;1254;139533;-69
2023/06/28 15:35:36;;;;;;;4.90;4.60;;;;;;;16.39;75.04;99405.13;219713;1254;140711;-69
2023/06/28 15:40:40;;;;;;;3.80;3.60;;;;;;;16.38;75.10;99402.88;218804;1255;140412;-64
2023/06/28 15:45:46;;;;;;;4.40;4.00;;;;;;;16.43;75.23;99406.77;218820;1254;140670;-67
2023/06/28 15:50:52;;;;;;;4.50;4.10;;;;;;;16.42;75.21;99403.98;218188;1254;140532;-64
2023/06/28 15:56:00;;;;;;;4.40;3.60;;;;;;;16.36;75.25;99403.54;218157;1254;140294;-66
2023/06/28 16:01:15;;;;;;;4.80;4.40;;;;;;;16.29;75.49;99404.55;218305;1254;140470;-66
2023/06/28 16:06:24;;;;;;;4.70;4.30;;;;;;;16.23;75.63;99406.46;218175;1254;139955;-67
2023/06/28 16:11:33;;;;;;;2.80;2.60;;;;;;;16.20;75.92;99405.05;219526;1254;139676;-69
2023/06/28 16:16:44;;;;;;;5.00;4.60;;;;;;;16.15;75.94;99408.38;218060;1258;139781;-72
2023/06/28 16:21:48;;;;;;;9.80;5.10;;;;;;;16.08;76.31;99402.98;220226;1254;141119;-71
2023/06/28 16:26:54;;;;;;;7.40;3.90;;;;;;;16.10;76.68;99401.67;218535;1254;140984;-70
2023/06/28 16:32:02;;;;;;;5.50;4.90;;;;;;;16.15;76.79;99404.66;218631;1254;140536;-72
2023/06/28 16:37:08;;;;;;;6.60;4.80;;;;;;;16.15;76.83;99402.30;220690;1254;140512;-69
2023/06/28 16:42:13;;;;;;;6.30;5.20;;;;;;;16.22;77.13;99405.30;219337;1257;140802;-69
2023/06/28 16:47:18;;;;;;;9.10;6.30;;;;;;;16.29;77.32;99409.02;220543;1254;140945;-72
2023/06/28 16:52:23;;;;;;;6.10;5.30;;;;;;;16.41;77.60;99417.05;220621;1254;140094;-68
2023/06/28 16:57:27;;;;;;;8.50;5.90;;;;;;;16.58;77.61;99420.52;219155;1254;140455;-66
2023/06/28 17:02:32;;;;;;;8.20;6.40;;;;;;;16.72;77.66;99418.94;219611;1253;139533;-74
2023/06/28 17:07:40;;;;;;;6.00;5.50;;;;;;;16.82;77.62;99427.19;218452;1254;140581;-71
2023/06/28 17:12:45;;;;;;;4.90;4.50;;;;;;;16.86;77.46;99430.05;218883;1254;140546;-76
2023/06/28 17:17:51;;;;;;;6.70;6.00;;;;;;;16.85;77.49;99432.38;218240;1254;140642;-72
2023/06/28 17:22:56;;;;;;;6.40;5.80;;;;;;;16.82;77.51;99423.67;217867;1254;139855;-68
2023/06/28 17:28:01;;;;;;;6.50;6.00;;;;;;;16.83;77.76;99420.65;219130;1258;140114;-68
2023/06/28 17:33:05;;;;;;;6.70;5.90;;;;;;;16.84;77.98;99420.64;217925;1254;140939;-67
2023/06/28 17:38:09;;;;;;;7.30;6.00;;;;;;;16.85;78.07;99419.99;219590;1254;139692;-68
2023/06/28 17:43:13;;;;;;;5.60;5.20;;;;;;;16.86;78.12;99422.67;219121;1254;140050;-65
2023/06/28 17:48:18;;;;;;;8.50;6.60;;;;;;;16.89;78.41;99417.92;218373;1256;139701;-71
2023/06/28 17:53:23;;;;;;;6.80;5.80;;;;;;;16.92;78.52;99422.04;218887;1254;140222;-65
2023/06/28 17:58:28;;;;;;;8.60;6.70;;;;;;;16.90;78.46;99425.27;219132;1254;141092;-69
2023/06/28 18:03:36;;;;;;;8.70;6.10;;;;;;;16.88;78.79;99432.51;218331;1259;140800;-67
2023/06/28 18:08:47;;;;;;;6.00;5.30;;;;;;;16.87;78.91;99443.82;219086;1254;141356;-69
2023/06/28 18:13:57;;;;;;;8.10;5.70;;;;;;;16.88;78.88;99441.18;218588;1257;140161;-68
2023/06/28 18:19:10;;;;;;;6.80;6.20;;;;;;;16.85;79.09;99445.35;218676;1258;140318;-68
2023/06/28 18:24:20;;;;;;;7.70;6.80;;;;;;;16.84;79.09;99450.14;220244;1256;142648;-68
2023/06/28 18:29:28;;;;;;;7.10;6.40;;;;;;;16.85;79.15;99451.27;219924;1254;140278;-70
2023/06/28 18:34:37;;;;;;;8.90;6.80;;;;;;;16.84;79.12;99459.73;220566;1254;140865;-67
2023/06/28 18:39:53;;;;;;;7.60;6.90;;;;;;;16.84;79.32;99456.94;220256;1254;140921;-66
2023/06/28 18:44:57;;;;;;;10.70;6.80;;;;;;;16.86;79.44;99459.29;220909;1254;140338;-71
2023/06/28 18:50:03;;;;;;;6.90;6.20;;;;;;;16.90;79.52;99463.14;220886;1253;140373;-70
2023/06/28 18:55:10;;;;;;;8.10;7.30;;;;;;;16.94;79.54;99470.86;220562;1257;140530;-72
2023/06/28 19:00:19;;;;;;;5.40;5.00;;;;;;;16.99;79.55;99482.98;220458;1254;140046;-78
2023/06/28 19:05:25;;;;;;;8.40;6.90;;;;;;;16.99;79.51;99486.33;220721;1254;140025;-67
2023/06/28 19:10:30;;;;;;;8.80;5.90;;;;;;;16.98;79.48;99494.36;219838;1254;140014;-67
2023/06/28 19:15:38;;;;;;;7.50;6.50;;;;;;;16.94;79.52;99500.26;220247;1254;140123;-69
2023/06/28 19:20:44;;;;;;;7.60;6.20;;;;;;;16.91;79.74;99507.55;218769;1254;139571;-70
2023/06/28 19:25:51;;;;;;;7.10;6.60;;;;;;;16.88;80.04;99509.73;219132;1254;140110;-68
2023/06/28 19:30:55;;;;;;;9.40;8.10;;;;;;;16.88;80.22;99509.61;219316;1254;139561;-70
2023/06/28 19:36:00;;;;;;;9.10;8.10;;;;;;;16.84;80.26;99507.60;218018;1254;139522;-71
2023/06/28 19:41:04;;;;;;;7.70;6.90;;;;;;;16.77;80.34;99519.46;218806;1254;141217;-66
2023/06/28 19:46:09;;;;;;;8.10;6.70;;;;;;;16.72;80.74;99520.20;218150;1257;141040;-67
2023/06/28 19:51:17;;;;;;;12.80;7.50;;;;;;;16.67;80.92;99527.05;217872;1258;139945;-65
2023/06/28 19:56:28;;;;;;;8.40;7.70;;;;;;;16.64;80.91;99529.97;218566;1257;140700;-69
2023/06/28 20:01:39;;;;;;;8.10;7.10;;;;;;;16.56;81.16;99527.58;218842;1254;140663;-66
2023/06/28 20:06:50;;;;;;;10.40;7.60;;;;;;;16.55;81.21;99535.06;219003;1258;141718;-71
2023/06/28 20:12:33;;;;;;;9.40;8.50;;;;;;;16.52;81.34;99541.75;217824;1254;222431;-67
2023/06/28 20:17:38;;;;;;;;;;;;;;;16.50;81.49;99549.95;218755;1254;139488;-66
2023/06/28 20:22:43;;;;;;;8.30;7.30;;;;;;;16.48;81.88;99557.19;219576;1254;126168;-67
2023/06/28 20:27:48;;;;;;;9.50;8.50;;;;;;;16.49;81.76;99558.73;220044;1254;140560;-67
2023/06/28 20:32:53;;;;;;;9.50;8.60;;;;;;;16.51;81.80;99558.23;220301;1254;140135;-68
2023/06/28 20:37:58;;;;;;;9.90;8.90;;;;;;;16.51;81.80;99564.74;219241;1254;140764;-68
2023/06/28 20:43:03;;;;;;;9.10;8.10;;;;;;;16.49;81.89;99576.50;220639;1254;139884;-68
2023/06/28 20:48:06;;;;;;;9.90;7.90;;;;;;;16.47;82.03;99577.11;219673;1255;140111;-69
2023/06/28 20:53:10;;;;;;;10.90;9.30;;;;;;;16.49;82.05;99578.16;219260;1258;139763;-68
2023/06/28 20:58:15;;;;;;;12.80;9.90;;;;;;;16.51;82.25;99583.05;219663;1254;140399;-66
2023/06/28 21:03:19;;;;;;;9.70;8.80;;;;;;;16.50;82.31;99586.77;219838;1256;142244;-66
2023/06/28 21:08:23;;;;;;;10.80;9.00;;;;;;;16.49;82.42;99588.02;219188;1254;140683;-65
2023/06/28 21:13:28;;;;;;;10.30;9.30;;;;;;;16.50;82.60;99584.17;219065;1254;141175;-66
2023/06/28 21:18:33;;;;;;;13.80;10.20;;;;;;;16.50;82.70;99584.40;218974;1254;139852;-66
2023/06/28 21:23:39;;;;;;;11.80;10.20;;;;;;;16.51;82.73;99582.98;218563;1257;142549;-66
2023/06/28 21:28:44;;;;;;;16.70;11.00;;;;;;;16.53;82.96;99587.75;218857;1254;141326;-70
2023/06/28 21:33:50;;;;;;;12.00;10.80;;;;;;;16.54;82.99;99588.67;218640;1254;142398;-68
2023/06/28 21:38:57;;;;;;;10.60;9.60;;;;;;;16.54;83.21;99595.07;218315;1260;140601;-67
2023/06/28 21:44:01;;;;;;;11.70;10.50;;;;;;;16.55;83.40;99593.29;218171;1257;139683;-67
2023/06/28 21:49:06;;;;;;;11.60;10.40;;;;;;;16.54;83.56;99595.18;218627;1254;140529;-65
2023/06/28 21:54:18;;;;;;;11.60;10.60;;;;;;;16.55;83.73;99597.05;218865;1254;139975;-68
2023/06/28 21:59:25;;;;;;;10.80;9.80;;;;;;;16.56;83.91;99600.23;219190;1254;140765;-67
2023/06/28 22:04:30;;;;;;;13.40;10.30;;;;;;;16.59;83.97;99597.58;219698;1254;140547;-66
2023/06/28 22:09:34;;;;;;;14.10;10.50;;;;;;;16.61;84.09;99600.20;218623;1256;140154;-67
2023/06/28 22:14:47;;;;;;;13.30;9.00;;;;;;;16.62;84.14;99603.28;219919;1254;141568;-65
2023/06/28 22:19:53;;;;;;;9.80;8.80;;;;;;;16.58;84.00;99605.34;220047;1254;139816;-65
2023/06/28 22:24:57;;;;;;;10.80;9.80;;;;;;;16.57;84.12;99604.69;219947;1254;140830;-69
2023/06/28 22:30:01;;;;;;;13.90;10.70;;;;;;;16.58;84.11;99607.55;219092;1254;140205;-67
2023/06/28 22:35:06;;;;;;;14.10;8.60;;;;;;;16.55;84.08;99609.80;220697;1254;139922;-68
2023/06/28 22:40:10;;;;;;;12.30;10.90;;;;;;;16.53;84.06;99612.23;219606;1254;141224;-68
2023/06/28 22:45:14;;;;;;;15.10;9.50;;;;;;;16.49;84.01;99616.54;220365;1254;140785;-67
2023/06/28 22:50:18;;;;;;;12.50;8.90;;;;;;;16.46;84.02;99611.70;220534;1257;140783;-70
2023/06/28 22:55:23;;;;;;;12.20;10.50;;;;;;;16.46;83.99;99611.98;218992;1256;140477;-67
2023/06/28 23:00:28;;;;;;;18.40;9.80;;;;;;;16.45;83.96;99610.91;219402;1257;140227;-69
2023/06/28 23:05:36;;;;;;;14.40;10.40;;;;;;;16.39;83.70;99614.64;219788;1254;141461;-69
2023/06/28 23:10:41;;;;;;;19.10;11.60;;;;;;;16.31;83.60;99619.34;218429;1259;139777;-70
2023/06/28 23:15:49;;;;;;;11.10;9.10;;;;;;;16.22;83.63;99619.86;219078;1255;142237;-66
2023/06/28 23:20:55;;;;;;;16.10;11.10;;;;;;;16.14;83.75;99622.42;218296;1255;141320;-65
2023/06/28 23:26:01;;;;;;;13.80;8.30;;;;;;;16.06;83.85;99622.98;219877;1257;140645;-68
2023/06/28 23:31:05;;;;;;;14.60;10.90;;;;;;;15.96;83.86;99622.68;219117;1260;140406;-68
2023/06/28 23:36:11;;;;;;;11.50;10.30;;;;;;;15.92;83.81;99621.88;218686;1255;160697;-67